sensor_id;sensor_type;location;lat;lon;timestamp;P1;durP1;ratioP1;P2;durP2;ratioP2
37241;SDS011;23135;51.078;12.108;2023-04-01T00:01:18;1.55;;;0.00;;
37241;SDS011;23135;51.078;12.108;2023-04-01T00:03:44;4.38;;;0.63;;
37241;SDS011;23135;51.078;12.108;2023-04-01T00:06:15;1.13;;;0.00;;
37241;SDS011;23135;51.078;12.108;2023-04-01T00:08:42;3.58;;;0.03;;
37241;SDS011;23135;51.078;12.108;2023-04-01T00:11:07;2.05;;;0.00;;
37241;SDS011;23135;51.078;12.108;2023-04-01T00:13:33;2.80;;;0.00;;
37241;SDS011;23135;51.078;12.108;2023-04-01T00:15:59;1.92;;;0.00;;
37241;SDS011;23135;51.078;12.108;2023-04-01T00:18:26;2.05;;;0.20;;
37241;SDS011;23135;51.078;12.108;2023-04-01T00:20:52;4.90;;;0.17;;
37241;SDS011;23135;51.078;12.108;2023-04-01T00:23:18;0.70;;;0.20;;
37241;SDS011;23135;51.078;12.108;2023-04-01T00:25:44;3.20;;;0.00;;
37241;SDS011;23135;51.078;12.108;2023-04-01T00:28:12;2.65;;;0.13;;
37241;SDS011;23135;51.078;12.108;2023-04-01T00:30:39;2.22;;;0.00;;
37241;SDS011;23135;51.078;12.108;2023-04-01T00:33:05;1.35;;;0.00;;
37241;SDS011;23135;51.078;12.108;2023-04-01T00:35:31;0.68;;;0.00;;
37241;SDS011;23135;51.078;12.108;2023-04-01T00:37:57;2.03;;;0.10;;
37241;SDS011;23135;51.078;12.108;2023-04-01T00:40:31;0.95;;;0.00;;
37241;SDS011;23135;51.078;12.108;2023-04-01T00:43:02;1.85;;;0.00;;
37241;SDS011;23135;51.078;12.108;2023-04-01T00:47:58;4.13;;;0.00;;
37241;SDS011;23135;51.078;12.108;2023-04-01T00:50:27;3.10;;;0.00;;
37241;SDS011;23135;51.078;12.108;2023-04-01T00:52:55;2.08;;;0.00;;
37241;SDS011;23135;51.078;12.108;2023-04-01T00:55:21;0.20;;;0.00;;
37241;SDS011;23135;51.078;12.108;2023-04-01T00:57:48;2.95;;;0.47;;
37241;SDS011;23135;51.078;12.108;2023-04-01T01:00:16;1.35;;;0.10;;
37241;SDS011;23135;51.078;12.108;2023-04-01T01:02:43;2.05;;;0.00;;
37241;SDS011;23135;51.078;12.108;2023-04-01T01:05:14;3.00;;;0.10;;
37241;SDS011;23135;51.078;12.108;2023-04-01T01:10:19;1.95;;;0.00;;
37241;SDS011;23135;51.078;12.108;2023-04-01T01:12:56;2.65;;;0.40;;
37241;SDS011;23135;51.078;12.108;2023-04-01T01:15:32;0.75;;;0.00;;
37241;SDS011;23135;51.078;12.108;2023-04-01T01:20:56;2.85;;;0.00;;
37241;SDS011;23135;51.078;12.108;2023-04-01T01:24:08;2.42;;;0.00;;
37241;SDS011;23135;51.078;12.108;2023-04-01T01:32:03;4.35;;;0.45;;
37241;SDS011;23135;51.078;12.108;2023-04-01T01:37:13;2.13;;;0.00;;
37241;SDS011;23135;51.078;12.108;2023-04-01T01:39:42;2.67;;;0.45;;
37241;SDS011;23135;51.078;12.108;2023-04-01T01:42:11;0.85;;;0.00;;
37241;SDS011;23135;51.078;12.108;2023-04-01T01:44:40;0.82;;;0.03;;
37241;SDS011;23135;51.078;12.108;2023-04-01T01:47:09;1.00;;;0.13;;
37241;SDS011;23135;51.078;12.108;2023-04-01T01:49:36;0.47;;;0.00;;
37241;SDS011;23135;51.078;12.108;2023-04-01T01:52:03;2.28;;;0.08;;
37241;SDS011;23135;51.078;12.108;2023-04-01T01:54:29;1.98;;;0.10;;
37241;SDS011;23135;51.078;12.108;2023-04-01T01:56:57;0.40;;;0.00;;
37241;SDS011;23135;51.078;12.108;2023-04-01T01:59:28;4.15;;;0.40;;
37241;SDS011;23135;51.078;12.108;2023-04-01T02:01:55;9.25;;;1.73;;
37241;SDS011;23135;51.078;12.108;2023-04-01T02:04:22;3.97;;;0.10;;
37241;SDS011;23135;51.078;12.108;2023-04-01T02:07:04;3.55;;;0.00;;
37241;SDS011;23135;51.078;12.108;2023-04-01T02:09:37;5.82;;;0.10;;
37241;SDS011;23135;51.078;12.108;2023-04-01T02:12:04;1.45;;;0.10;;
37241;SDS011;23135;51.078;12.108;2023-04-01T02:14:50;4.22;;;0.55;;
37241;SDS011;23135;51.078;12.108;2023-04-01T02:17:43;3.75;;;0.43;;
37241;SDS011;23135;51.078;12.108;2023-04-01T02:20:13;4.57;;;0.00;;
37241;SDS011;23135;51.078;12.108;2023-04-01T02:22:43;1.00;;;0.08;;
37241;SDS011;23135;51.078;12.108;2023-04-01T02:25:19;5.13;;;0.00;;
37241;SDS011;23135;51.078;12.108;2023-04-01T02:27:49;1.58;;;0.57;;
37241;SDS011;23135;51.078;12.108;2023-04-01T02:30:15;1.27;;;0.55;;
37241;SDS011;23135;51.078;12.108;2023-04-01T02:32:41;2.67;;;0.70;;
37241;SDS011;23135;51.078;12.108;2023-04-01T02:35:09;2.03;;;0.00;;
37241;SDS011;23135;51.078;12.108;2023-04-01T02:37:37;7.95;;;0.40;;
37241;SDS011;23135;51.078;12.108;2023-04-01T02:40:07;1.95;;;0.08;;
37241;SDS011;23135;51.078;12.108;2023-04-01T02:42:34;0.15;;;0.00;;
37241;SDS011;23135;51.078;12.108;2023-04-01T02:45:00;0.88;;;0.00;;
37241;SDS011;23135;51.078;12.108;2023-04-01T02:47:26;4.07;;;0.08;;
37241;SDS011;23135;51.078;12.108;2023-04-01T02:49:52;5.35;;;0.32;;
37241;SDS011;23135;51.078;12.108;2023-04-01T02:52:23;1.13;;;0.00;;
37241;SDS011;23135;51.078;12.108;2023-04-01T02:54:52;1.10;;;0.00;;
37241;SDS011;23135;51.078;12.108;2023-04-01T02:57:18;1.33;;;0.00;;
37241;SDS011;23135;51.078;12.108;2023-04-01T02:59:44;0.68;;;0.00;;
37241;SDS011;23135;51.078;12.108;2023-04-01T03:02:10;2.35;;;0.22;;
37241;SDS011;23135;51.078;12.108;2023-04-01T03:04:36;4.65;;;0.00;;
37241;SDS011;23135;51.078;12.108;2023-04-01T03:07:01;2.00;;;0.10;;
37241;SDS011;23135;51.078;12.108;2023-04-01T03:09:27;2.40;;;0.10;;
37241;SDS011;23135;51.078;12.108;2023-04-01T03:11:53;0.95;;;0.00;;
37241;SDS011;23135;51.078;12.108;2023-04-01T03:14:19;0.57;;;0.00;;
37241;SDS011;23135;51.078;12.108;2023-04-01T03:16:45;2.10;;;0.03;;
37241;SDS011;23135;51.078;12.108;2023-04-01T03:19:10;0.65;;;0.10;;
37241;SDS011;23135;51.078;12.108;2023-04-01T03:21:36;2.55;;;0.00;;
37241;SDS011;23135;51.078;12.108;2023-04-01T03:24:01;3.20;;;0.00;;
37241;SDS011;23135;51.078;12.108;2023-04-01T03:26:27;2.33;;;0.00;;
37241;SDS011;23135;51.078;12.108;2023-04-01T03:28:53;4.15;;;0.57;;
37241;SDS011;23135;51.078;12.108;2023-04-01T03:31:18;2.30;;;0.00;;
37241;SDS011;23135;51.078;12.108;2023-04-01T03:33:44;1.45;;;0.20;;
37241;SDS011;23135;51.078;12.108;2023-04-01T03:36:10;0.35;;;0.00;;
37241;SDS011;23135;51.078;12.108;2023-04-01T03:38:37;4.25;;;0.63;;
37241;SDS011;23135;51.078;12.108;2023-04-01T03:41:05;3.63;;;0.00;;
37241;SDS011;23135;51.078;12.108;2023-04-01T03:43:31;0.28;;;0.00;;
37241;SDS011;23135;51.078;12.108;2023-04-01T03:45:57;2.30;;;0.10;;
37241;SDS011;23135;51.078;12.108;2023-04-01T03:48:23;2.10;;;0.10;;
37241;SDS011;23135;51.078;12.108;2023-04-01T03:50:50;2.00;;;0.00;;
37241;SDS011;23135;51.078;12.108;2023-04-01T03:53:15;0.55;;;0.00;;
37241;SDS011;23135;51.078;12.108;2023-04-01T03:55:41;2.35;;;0.00;;
37241;SDS011;23135;51.078;12.108;2023-04-01T03:58:07;1.90;;;0.05;;
37241;SDS011;23135;51.078;12.108;2023-04-01T04:00:33;2.03;;;0.00;;
37241;SDS011;23135;51.078;12.108;2023-04-01T04:02:59;1.05;;;0.00;;
37241;SDS011;23135;51.078;12.108;2023-04-01T04:05:25;2.55;;;0.40;;
37241;SDS011;23135;51.078;12.108;2023-04-01T04:07:52;1.20;;;0.00;;
37241;SDS011;23135;51.078;12.108;2023-04-01T04:10:18;4.15;;;0.38;;
37241;SDS011;23135;51.078;12.108;2023-04-01T04:12:43;1.42;;;0.00;;
37241;SDS011;23135;51.078;12.108;2023-04-01T04:15:09;0.88;;;0.00;;
37241;SDS011;23135;51.078;12.108;2023-04-01T04:17:35;1.55;;;0.00;;
37241;SDS011;23135;51.078;12.108;2023-04-01T04:20:01;3.30;;;0.00;;
37241;SDS011;23135;51.078;12.108;2023-04-01T04:22:27;1.23;;;0.00;;
37241;SDS011;23135;51.078;12.108;2023-04-01T04:24:52;1.55;;;0.00;;
37241;SDS011;23135;51.078;12.108;2023-04-01T04:27:18;0.63;;;0.00;;
37241;SDS011;23135;51.078;12.108;2023-04-01T04:29:44;2.35;;;0.00;;
37241;SDS011;23135;51.078;12.108;2023-04-01T04:32:10;1.27;;;0.10;;
37241;SDS011;23135;51.078;12.108;2023-04-01T04:34:35;0.15;;;0.00;;
37241;SDS011;23135;51.078;12.108;2023-04-01T04:37:01;0.60;;;0.20;;
37241;SDS011;23135;51.078;12.108;2023-04-01T04:39:27;2.92;;;0.10;;
37241;SDS011;23135;51.078;12.108;2023-04-01T04:41:52;4.45;;;0.00;;
37241;SDS011;23135;51.078;12.108;2023-04-01T04:44:18;3.38;;;0.00;;
37241;SDS011;23135;51.078;12.108;2023-04-01T04:46:43;1.20;;;0.08;;
37241;SDS011;23135;51.078;12.108;2023-04-01T04:49:09;0.00;;;0.00;;
37241;SDS011;23135;51.078;12.108;2023-04-01T04:51:35;1.23;;;0.00;;
37241;SDS011;23135;51.078;12.108;2023-04-01T04:54:01;1.65;;;0.00;;
37241;SDS011;23135;51.078;12.108;2023-04-01T04:56:30;6.63;;;0.10;;
37241;SDS011;23135;51.078;12.108;2023-04-01T04:58:56;1.75;;;0.00;;
37241;SDS011;23135;51.078;12.108;2023-04-01T05:01:22;3.22;;;0.00;;
37241;SDS011;23135;51.078;12.108;2023-04-01T05:03:48;2.97;;;0.00;;
37241;SDS011;23135;51.078;12.108;2023-04-01T05:06:14;0.30;;;0.00;;
37241;SDS011;23135;51.078;12.108;2023-04-01T05:08:42;2.42;;;0.10;;
37241;SDS011;23135;51.078;12.108;2023-04-01T05:11:09;1.83;;;0.52;;
37241;SDS011;23135;51.078;12.108;2023-04-01T05:13:37;0.32;;;0.00;;
37241;SDS011;23135;51.078;12.108;2023-04-01T05:16:03;4.78;;;0.00;;
37241;SDS011;23135;51.078;12.108;2023-04-01T05:18:32;0.90;;;0.00;;
37241;SDS011;23135;51.078;12.108;2023-04-01T05:20:57;3.25;;;0.38;;
37241;SDS011;23135;51.078;12.108;2023-04-01T05:23:23;3.30;;;0.00;;
37241;SDS011;23135;51.078;12.108;2023-04-01T05:25:49;5.15;;;0.30;;
37241;SDS011;23135;51.078;12.108;2023-04-01T05:28:16;0.95;;;0.00;;
37241;SDS011;23135;51.078;12.108;2023-04-01T05:30:42;3.72;;;0.00;;
37241;SDS011;23135;51.078;12.108;2023-04-01T05:33:09;2.53;;;0.10;;
37241;SDS011;23135;51.078;12.108;2023-04-01T05:35:35;0.70;;;0.00;;
37241;SDS011;23135;51.078;12.108;2023-04-01T05:38:01;1.88;;;0.00;;
37241;SDS011;23135;51.078;12.108;2023-04-01T05:40:27;2.47;;;0.00;;
37241;SDS011;23135;51.078;12.108;2023-04-01T05:42:53;3.75;;;0.00;;
37241;SDS011;23135;51.078;12.108;2023-04-01T05:45:19;2.00;;;0.03;;
37241;SDS011;23135;51.078;12.108;2023-04-01T05:47:44;2.75;;;0.22;;
37241;SDS011;23135;51.078;12.108;2023-04-01T05:50:10;2.55;;;0.00;;
37241;SDS011;23135;51.078;12.108;2023-04-01T05:52:36;1.25;;;0.00;;
37241;SDS011;23135;51.078;12.108;2023-04-01T05:55:02;4.47;;;0.00;;
37241;SDS011;23135;51.078;12.108;2023-04-01T05:57:28;4.20;;;0.00;;
37241;SDS011;23135;51.078;12.108;2023-04-01T05:59:54;0.73;;;0.00;;
37241;SDS011;23135;51.078;12.108;2023-04-01T06:02:19;4.65;;;0.13;;
37241;SDS011;23135;51.078;12.108;2023-04-01T06:04:45;1.77;;;0.13;;
37241;SDS011;23135;51.078;12.108;2023-04-01T06:07:11;2.28;;;0.38;;
37241;SDS011;23135;51.078;12.108;2023-04-01T06:09:41;1.52;;;0.00;;
37241;SDS011;23135;51.078;12.108;2023-04-01T06:15:07;4.68;;;0.00;;
37241;SDS011;23135;51.078;12.108;2023-04-01T06:21:27;1.45;;;0.00;;
37241;SDS011;23135;51.078;12.108;2023-04-01T06:27:03;2.05;;;0.45;;
37241;SDS011;23135;51.078;12.108;2023-04-01T06:37:35;5.38;;;0.17;;
37241;SDS011;23135;51.078;12.108;2023-04-01T06:45:54;1.67;;;0.05;;
37241;SDS011;23135;51.078;12.108;2023-04-01T06:51:16;1.52;;;0.13;;
37241;SDS011;23135;51.078;12.108;2023-04-01T06:54:09;2.25;;;0.00;;
37241;SDS011;23135;51.078;12.108;2023-04-01T06:56:39;1.33;;;0.20;;
37241;SDS011;23135;51.078;12.108;2023-04-01T06:59:15;1.10;;;0.00;;
37241;SDS011;23135;51.078;12.108;2023-04-01T07:01:51;0.52;;;0.00;;
37241;SDS011;23135;51.078;12.108;2023-04-01T07:04:28;1.55;;;0.00;;
37241;SDS011;23135;51.078;12.108;2023-04-01T07:07:02;4.43;;;0.10;;
37241;SDS011;23135;51.078;12.108;2023-04-01T07:09:49;3.45;;;0.30;;
37241;SDS011;23135;51.078;12.108;2023-04-01T07:12:32;0.10;;;0.10;;
37241;SDS011;23135;51.078;12.108;2023-04-01T07:16:08;1.02;;;0.00;;
37241;SDS011;23135;51.078;12.108;2023-04-01T07:18:07;0.60;;;0.00;;
37241;SDS011;23135;51.078;12.108;2023-04-01T07:20:42;1.08;;;0.00;;
37241;SDS011;23135;51.078;12.108;2023-04-01T07:23:21;2.38;;;0.28;;
37241;SDS011;23135;51.078;12.108;2023-04-01T07:26:00;2.92;;;0.00;;
37241;SDS011;23135;51.078;12.108;2023-04-01T07:28:39;1.58;;;0.00;;
37241;SDS011;23135;51.078;12.108;2023-04-01T07:36:39;0.57;;;0.00;;
37241;SDS011;23135;51.078;12.108;2023-04-01T07:44:30;1.60;;;0.37;;
37241;SDS011;23135;51.078;12.108;2023-04-01T07:47:20;1.30;;;0.00;;
37241;SDS011;23135;51.078;12.108;2023-04-01T07:52:41;5.05;;;0.43;;
37241;SDS011;23135;51.078;12.108;2023-04-01T08:06:47;3.35;;;0.00;;
37241;SDS011;23135;51.078;12.108;2023-04-01T08:09:25;2.40;;;0.10;;
37241;SDS011;23135;51.078;12.108;2023-04-01T08:20:27;1.70;;;0.00;;
37241;SDS011;23135;51.078;12.108;2023-04-01T08:23:21;3.83;;;0.00;;
37241;SDS011;23135;51.078;12.108;2023-04-01T08:25:55;2.65;;;0.00;;
37241;SDS011;23135;51.078;12.108;2023-04-01T08:28:41;0.65;;;0.47;;
37241;SDS011;23135;51.078;12.108;2023-04-01T08:33:42;1.38;;;0.10;;
37241;SDS011;23135;51.078;12.108;2023-04-01T08:36:21;1.42;;;0.00;;
37241;SDS011;23135;51.078;12.108;2023-04-01T08:47:29;2.20;;;0.00;;
37241;SDS011;23135;51.078;12.108;2023-04-01T08:55:51;1.52;;;0.00;;
37241;SDS011;23135;51.078;12.108;2023-04-01T08:58:59;1.17;;;0.00;;
37241;SDS011;23135;51.078;12.108;2023-04-01T09:10:02;4.78;;;0.55;;
37241;SDS011;23135;51.078;12.108;2023-04-01T09:39:47;2.53;;;0.13;;
37241;SDS011;23135;51.078;12.108;2023-04-01T09:43:05;0.30;;;0.00;;
37241;SDS011;23135;51.078;12.108;2023-04-01T09:45:29;0.20;;;0.00;;
37241;SDS011;23135;51.078;12.108;2023-04-01T09:48:21;4.70;;;1.25;;
37241;SDS011;23135;51.078;12.108;2023-04-01T09:51:04;2.17;;;0.00;;
37241;SDS011;23135;51.078;12.108;2023-04-01T10:13:11;1.10;;;0.00;;
37241;SDS011;23135;51.078;12.108;2023-04-01T10:21:29;0.00;;;0.00;;
37241;SDS011;23135;51.078;12.108;2023-04-01T10:36:00;0.00;;;0.00;;
37241;SDS011;23135;51.078;12.108;2023-04-01T10:38:57;0.00;;;0.00;;
37241;SDS011;23135;51.078;12.108;2023-04-01T11:04:13;0.00;;;0.00;;
37241;SDS011;23135;51.078;12.108;2023-04-01T11:24:09;0.20;;;0.00;;
37241;SDS011;23135;51.078;12.108;2023-04-01T11:27:21;0.38;;;0.00;;
37241;SDS011;23135;51.078;12.108;2023-04-01T11:46:46;0.00;;;0.00;;
37241;SDS011;23135;51.078;12.108;2023-04-01T11:49:36;0.00;;;0.00;;
37241;SDS011;23135;51.078;12.108;2023-04-01T11:52:19;0.00;;;0.00;;
37241;SDS011;23135;51.078;12.108;2023-04-01T11:55:00;0.00;;;0.00;;
37241;SDS011;23135;51.078;12.108;2023-04-01T12:00:19;0.30;;;0.00;;
37241;SDS011;23135;51.078;12.108;2023-04-01T12:08:46;0.00;;;0.00;;
37241;SDS011;23135;51.078;12.108;2023-04-01T12:11:39;0.75;;;0.00;;
37241;SDS011;23135;51.078;12.108;2023-04-01T12:14:19;0.52;;;0.00;;
37241;SDS011;23135;51.078;12.108;2023-04-01T12:17:21;1.85;;;0.00;;
37241;SDS011;23135;51.078;12.108;2023-04-01T12:36:35;1.83;;;0.00;;
37241;SDS011;23135;51.078;12.108;2023-04-01T12:47:49;0.10;;;0.00;;
37241;SDS011;23135;51.078;12.108;2023-04-01T12:50:31;2.17;;;0.00;;
37241;SDS011;23135;51.078;12.108;2023-04-01T12:53:49;0.25;;;0.00;;
37241;SDS011;23135;51.078;12.108;2023-04-01T12:57:06;1.10;;;0.00;;
37241;SDS011;23135;51.078;12.108;2023-04-01T13:02:15;2.55;;;0.00;;
37241;SDS011;23135;51.078;12.108;2023-04-01T13:07:38;0.25;;;0.00;;
37241;SDS011;23135;51.078;12.108;2023-04-01T13:10:27;0.00;;;0.00;;
37241;SDS011;23135;51.078;12.108;2023-04-01T13:15:55;0.08;;;0.00;;
37241;SDS011;23135;51.078;12.108;2023-04-01T13:29:21;0.28;;;0.28;;
37241;SDS011;23135;51.078;12.108;2023-04-01T13:32:15;0.10;;;0.00;;
37241;SDS011;23135;51.078;12.108;2023-04-01T13:38:10;0.98;;;0.00;;
37241;SDS011;23135;51.078;12.108;2023-04-01T13:41:01;1.48;;;0.00;;
37241;SDS011;23135;51.078;12.108;2023-04-01T13:43:31;0.00;;;0.00;;
37241;SDS011;23135;51.078;12.108;2023-04-01T13:54:57;0.00;;;0.00;;
37241;SDS011;23135;51.078;12.108;2023-04-01T14:00:33;0.73;;;0.35;;
37241;SDS011;23135;51.078;12.108;2023-04-01T14:02:44;0.30;;;0.00;;
37241;SDS011;23135;51.078;12.108;2023-04-01T14:11:34;0.00;;;0.00;;
37241;SDS011;23135;51.078;12.108;2023-04-01T14:17:21;1.38;;;0.00;;
37241;SDS011;23135;51.078;12.108;2023-04-01T14:20:16;0.52;;;0.00;;
37241;SDS011;23135;51.078;12.108;2023-04-01T14:25:56;0.10;;;0.00;;
37241;SDS011;23135;51.078;12.108;2023-04-01T14:39:43;0.98;;;0.00;;
37241;SDS011;23135;51.078;12.108;2023-04-01T14:50:49;0.00;;;0.00;;
37241;SDS011;23135;51.078;12.108;2023-04-01T14:55:58;0.00;;;0.00;;
37241;SDS011;23135;51.078;12.108;2023-04-01T14:58:42;0.00;;;0.00;;
37241;SDS011;23135;51.078;12.108;2023-04-01T15:04:12;19.33;;;6.78;;
37241;SDS011;23135;51.078;12.108;2023-04-01T15:09:49;0.88;;;0.40;;
37241;SDS011;23135;51.078;12.108;2023-04-01T15:12:30;0.00;;;0.00;;
37241;SDS011;23135;51.078;12.108;2023-04-01T15:15:29;0.30;;;0.00;;
37241;SDS011;23135;51.078;12.108;2023-04-01T15:18:23;0.00;;;0.00;;
37241;SDS011;23135;51.078;12.108;2023-04-01T15:21:04;2.25;;;0.00;;
37241;SDS011;23135;51.078;12.108;2023-04-01T15:23:43;0.57;;;0.00;;
37241;SDS011;23135;51.078;12.108;2023-04-01T15:26:37;0.38;;;0.00;;
37241;SDS011;23135;51.078;12.108;2023-04-01T15:29:34;1.75;;;0.00;;
37241;SDS011;23135;51.078;12.108;2023-04-01T15:32:13;0.15;;;0.00;;
37241;SDS011;23135;51.078;12.108;2023-04-01T15:34:57;0.00;;;0.00;;
37241;SDS011;23135;51.078;12.108;2023-04-01T15:43:03;6.18;;;0.38;;
37241;SDS011;23135;51.078;12.108;2023-04-01T15:51:26;0.38;;;0.38;;
37241;SDS011;23135;51.078;12.108;2023-04-01T15:54:21;0.43;;;0.00;;
37241;SDS011;23135;51.078;12.108;2023-04-01T15:57:15;0.20;;;0.00;;
37241;SDS011;23135;51.078;12.108;2023-04-01T16:00:02;0.52;;;0.00;;
37241;SDS011;23135;51.078;12.108;2023-04-01T16:02:53;0.08;;;0.00;;
37241;SDS011;23135;51.078;12.108;2023-04-01T16:18:51;1.10;;;0.40;;
37241;SDS011;23135;51.078;12.108;2023-04-01T16:34:47;1.55;;;0.00;;
37241;SDS011;23135;51.078;12.108;2023-04-01T16:43:04;0.43;;;0.13;;
37241;SDS011;23135;51.078;12.108;2023-04-01T16:45:53;1.52;;;0.82;;
37241;SDS011;23135;51.078;12.108;2023-04-01T16:48:34;0.28;;;0.03;;
37241;SDS011;23135;51.078;12.108;2023-04-01T16:51:15;0.10;;;0.05;;
37241;SDS011;23135;51.078;12.108;2023-04-01T16:53:43;0.10;;;0.00;;
37241;SDS011;23135;51.078;12.108;2023-04-01T16:58:46;0.45;;;0.00;;
37241;SDS011;23135;51.078;12.108;2023-04-01T17:01:27;0.57;;;0.00;;
37241;SDS011;23135;51.078;12.108;2023-04-01T17:04:19;0.30;;;0.10;;
37241;SDS011;23135;51.078;12.108;2023-04-01T17:15:16;0.10;;;0.00;;
37241;SDS011;23135;51.078;12.108;2023-04-01T17:23:44;0.88;;;0.00;;
37241;SDS011;23135;51.078;12.108;2023-04-01T17:26:19;0.10;;;0.00;;
37241;SDS011;23135;51.078;12.108;2023-04-01T17:29:20;0.93;;;0.00;;
37241;SDS011;23135;51.078;12.108;2023-04-01T17:32:11;0.35;;;0.30;;
37241;SDS011;23135;51.078;12.108;2023-04-01T17:37:45;23.17;;;11.23;;
37241;SDS011;23135;51.078;12.108;2023-04-01T17:40:33;2.00;;;1.05;;
37241;SDS011;23135;51.078;12.108;2023-04-01T17:46:02;0.45;;;0.20;;
37241;SDS011;23135;51.078;12.108;2023-04-01T17:54:39;0.52;;;0.10;;
37241;SDS011;23135;51.078;12.108;2023-04-01T18:06:12;2.17;;;0.95;;
37241;SDS011;23135;51.078;12.108;2023-04-01T18:14:23;3.20;;;0.20;;
37241;SDS011;23135;51.078;12.108;2023-04-01T18:24:54;2.53;;;0.10;;
37241;SDS011;23135;51.078;12.108;2023-04-01T18:27:38;1.55;;;0.45;;
37241;SDS011;23135;51.078;12.108;2023-04-01T18:30:17;1.20;;;0.20;;
37241;SDS011;23135;51.078;12.108;2023-04-01T18:32:58;0.77;;;0.30;;
37241;SDS011;23135;51.078;12.108;2023-04-01T18:38:30;1.58;;;0.80;;
37241;SDS011;23135;51.078;12.108;2023-04-01T18:51:47;4.78;;;0.38;;
37241;SDS011;23135;51.078;12.108;2023-04-01T18:54:17;1.10;;;0.68;;
37241;SDS011;23135;51.078;12.108;2023-04-01T18:56:49;2.88;;;0.60;;
37241;SDS011;23135;51.078;12.108;2023-04-01T18:59:22;1.80;;;0.55;;
37241;SDS011;23135;51.078;12.108;2023-04-01T19:02:01;2.25;;;1.27;;
37241;SDS011;23135;51.078;12.108;2023-04-01T19:07:39;1.27;;;0.90;;
37241;SDS011;23135;51.078;12.108;2023-04-01T19:15:32;5.57;;;3.83;;
37241;SDS011;23135;51.078;12.108;2023-04-01T19:20:41;6.10;;;3.75;;
37241;SDS011;23135;51.078;12.108;2023-04-01T19:26:01;1.45;;;1.23;;
37241;SDS011;23135;51.078;12.108;2023-04-01T19:47:22;2.45;;;0.68;;
37241;SDS011;23135;51.078;12.108;2023-04-01T19:52:54;0.90;;;0.85;;
37241;SDS011;23135;51.078;12.108;2023-04-01T20:01:13;3.25;;;1.05;;
37241;SDS011;23135;51.078;12.108;2023-04-01T20:06:31;0.98;;;0.98;;
37241;SDS011;23135;51.078;12.108;2023-04-01T20:09:28;1.20;;;0.77;;
37241;SDS011;23135;51.078;12.108;2023-04-01T20:11:58;3.03;;;1.35;;
37241;SDS011;23135;51.078;12.108;2023-04-01T20:17:23;2.90;;;2.47;;
37241;SDS011;23135;51.078;12.108;2023-04-01T20:27:56;5.07;;;1.33;;
37241;SDS011;23135;51.078;12.108;2023-04-01T20:36:31;9.38;;;2.17;;
37241;SDS011;23135;51.078;12.108;2023-04-01T20:48:02;3.35;;;0.73;;
37241;SDS011;23135;51.078;12.108;2023-04-01T20:50:59;1.92;;;0.70;;
37241;SDS011;23135;51.078;12.108;2023-04-01T21:04:37;5.65;;;3.50;;
37241;SDS011;23135;51.078;12.108;2023-04-01T21:07:39;4.53;;;2.58;;
37241;SDS011;23135;51.078;12.108;2023-04-01T21:10:28;4.32;;;3.55;;
37241;SDS011;23135;51.078;12.108;2023-04-01T21:21:20;4.05;;;2.88;;
37241;SDS011;23135;51.078;12.108;2023-04-01T21:37:36;4.05;;;3.10;;
37241;SDS011;23135;51.078;12.108;2023-04-01T21:51:30;4.38;;;3.05;;
37241;SDS011;23135;51.078;12.108;2023-04-01T21:54:04;3.58;;;3.28;;
37241;SDS011;23135;51.078;12.108;2023-04-01T21:56:49;3.30;;;3.00;;
37241;SDS011;23135;51.078;12.108;2023-04-01T22:09:46;3.10;;;2.58;;
37241;SDS011;23135;51.078;12.108;2023-04-01T22:17:48;2.40;;;1.92;;
37241;SDS011;23135;51.078;12.108;2023-04-01T22:23:44;1.95;;;1.60;;
37241;SDS011;23135;51.078;12.108;2023-04-01T22:26:17;2.25;;;2.05;;
37241;SDS011;23135;51.078;12.108;2023-04-01T22:28:54;1.50;;;1.38;;
37241;SDS011;23135;51.078;12.108;2023-04-01T22:31:32;2.05;;;1.83;;
37241;SDS011;23135;51.078;12.108;2023-04-01T22:34:26;1.77;;;1.58;;
37241;SDS011;23135;51.078;12.108;2023-04-01T22:45:07;3.45;;;2.78;;
37241;SDS011;23135;51.078;12.108;2023-04-01T22:48:09;3.72;;;3.03;;
37241;SDS011;23135;51.078;12.108;2023-04-01T22:50:40;3.42;;;2.58;;
37241;SDS011;23135;51.078;12.108;2023-04-01T22:56:21;4.10;;;3.28;;
37241;SDS011;23135;51.078;12.108;2023-04-01T22:58:56;4.90;;;2.85;;
37241;SDS011;23135;51.078;12.108;2023-04-01T23:01:34;3.57;;;2.60;;
37241;SDS011;23135;51.078;12.108;2023-04-01T23:04:05;3.10;;;2.70;;
37241;SDS011;23135;51.078;12.108;2023-04-01T23:06:38;2.85;;;2.58;;
37241;SDS011;23135;51.078;12.108;2023-04-01T23:09:23;3.60;;;2.97;;
37241;SDS011;23135;51.078;12.108;2023-04-01T23:11:53;6.43;;;3.35;;
37241;SDS011;23135;51.078;12.108;2023-04-01T23:14:28;4.30;;;3.20;;
37241;SDS011;23135;51.078;12.108;2023-04-01T23:19:52;4.90;;;3.67;;
37241;SDS011;23135;51.078;12.108;2023-04-01T23:22:49;4.25;;;3.42;;
37241;SDS011;23135;51.078;12.108;2023-04-01T23:30:51;5.55;;;3.83;;
37241;SDS011;23135;51.078;12.108;2023-04-01T23:35:47;6.22;;;3.55;;
37241;SDS011;23135;51.078;12.108;2023-04-01T23:38:13;6.13;;;4.32;;
37241;SDS011;23135;51.078;12.108;2023-04-01T23:40:40;4.28;;;3.30;;
37241;SDS011;23135;51.078;12.108;2023-04-01T23:43:25;5.15;;;4.15;;
37241;SDS011;23135;51.078;12.108;2023-04-01T23:45:56;5.18;;;4.32;;
37241;SDS011;23135;51.078;12.108;2023-04-01T23:48:26;4.28;;;3.45;;
37241;SDS011;23135;51.078;12.108;2023-04-01T23:50:57;4.45;;;3.63;;
37241;SDS011;23135;51.078;12.108;2023-04-01T23:53:29;4.53;;;3.72;;
37241;SDS011;23135;51.078;12.108;2023-04-01T23:55:57;5.20;;;3.83;;
37241;SDS011;23135;51.078;12.108;2023-04-01T23:58:25;2.60;;;2.40;;
